createdAt,value
2017-09-26T00:00:14.778Z,86.81
2017-09-26T00:02:42.394Z,86.83
2017-09-26T00:05:09.966Z,86.80
2017-09-26T00:07:37.562Z,86.82
2017-09-26T00:10:06.621Z,86.95
2017-09-26T00:12:34.224Z,86.86
2017-09-26T00:15:02.181Z,86.62
2017-09-26T00:17:29.763Z,86.45
2017-09-26T00:19:57.335Z,86.32
2017-09-26T00:22:25.294Z,86.17
2017-09-26T00:24:54.197Z,85.99
2017-09-26T00:27:23.170Z,86.40
2017-09-26T00:29:50.756Z,86.63
2017-09-26T00:32:18.869Z,86.42
2017-09-26T00:34:47.509Z,86.93
2017-09-26T00:37:16.378Z,86.92
2017-09-26T00:39:45.294Z,86.68
2017-09-26T00:42:12.872Z,86.90
2017-09-26T00:44:41.612Z,86.89
2017-09-26T00:47:09.193Z,86.68
2017-09-26T00:49:37.190Z,86.82
2017-09-26T00:52:04.794Z,86.73
2017-09-26T00:54:33.087Z,86.77
2017-09-26T00:57:00.685Z,86.87
2017-09-26T00:59:29.449Z,86.95
2017-09-26T01:01:59.898Z,87.22
2017-09-26T01:04:28.117Z,87.33
2017-09-26T01:06:58.408Z,87.45
2017-09-26T01:09:28.845Z,87.38
2017-09-26T01:11:57.633Z,87.53
2017-09-26T01:14:25.991Z,87.66
2017-09-26T01:16:53.553Z,87.74
2017-09-26T01:19:21.128Z,87.76
2017-09-26T01:21:50.107Z,87.60
2017-09-26T01:24:17.745Z,87.48
2017-09-26T01:26:45.690Z,87.45
2017-09-26T01:29:15.041Z,87.51
2017-09-26T01:31:44.446Z,87.26
2017-09-26T01:34:12.914Z,87.17
2017-09-26T01:36:41.918Z,87.25
2017-09-26T01:39:09.482Z,87.21
2017-09-26T01:41:37.097Z,87.30
2017-09-26T01:44:06.033Z,87.38
2017-09-26T01:46:33.983Z,87.88
2017-09-26T01:49:01.558Z,87.85
2017-09-26T01:51:30.561Z,87.64
2017-09-26T01:53:58.161Z,87.53
2017-09-26T01:56:25.736Z,87.97
2017-09-26T01:58:55.871Z,87.88
2017-09-26T02:01:23.995Z,87.89
2017-09-26T02:03:51.577Z,87.98
2017-09-26T02:06:21.483Z,88.31
2017-09-26T02:08:51.579Z,88.18
2017-09-26T02:11:22.410Z,88.15
2017-09-26T02:13:50.006Z,87.96
2017-09-26T02:16:17.563Z,88.30
2017-09-26T02:18:48.103Z,88.14
2017-09-26T02:21:15.730Z,88.62
2017-09-26T02:23:43.284Z,88.71
2017-09-26T02:26:10.921Z,88.44
2017-09-26T02:28:38.789Z,88.20
2017-09-26T02:31:07.044Z,87.94
2017-09-26T02:33:34.610Z,88.03
2017-09-26T02:36:02.184Z,88.24
2017-09-26T02:38:30.992Z,87.97
2017-09-26T02:40:59.434Z,87.88
2017-09-26T02:43:27.678Z,87.73
2017-09-26T02:45:55.386Z,87.71
2017-09-26T02:48:26.049Z,87.75
2017-09-26T02:50:54.030Z,87.76
2017-09-26T02:53:21.632Z,87.77
2017-09-26T02:55:49.591Z,87.50
2017-09-26T02:58:18.536Z,87.54
2017-09-26T03:00:46.249Z,87.56
2017-09-26T03:03:14.210Z,87.50
2017-09-26T03:05:41.770Z,87.43
2017-09-26T03:08:09.817Z,87.29
2017-09-26T03:10:37.407Z,87.36
2017-09-26T03:13:04.995Z,87.73
2017-09-26T03:15:32.583Z,87.41
2017-09-26T03:18:03.713Z,87.46
2017-09-26T03:20:31.577Z,87.47
2017-09-26T03:22:59.257Z,87.32
2017-09-26T03:25:27.163Z,87.47
2017-09-26T03:27:55.171Z,87.49
2017-09-26T03:30:22.753Z,87.33
2017-09-26T03:32:50.782Z,87.10
2017-09-26T03:35:18.301Z,87.37
2017-09-26T03:37:50.509Z,87.51
2017-09-26T03:40:20.200Z,87.54
2017-09-26T03:42:47.860Z,87.22
2017-09-26T03:45:15.427Z,87.00
2017-09-26T03:47:43.034Z,87.60
2017-09-26T03:50:10.952Z,87.94
2017-09-26T03:52:38.570Z,87.94
2017-09-26T03:55:06.128Z,88.00
2017-09-26T03:57:37.583Z,87.92
2017-09-26T04:00:05.597Z,87.71
2017-09-26T04:02:33.550Z,87.37
2017-09-26T04:05:01.242Z,87.11
2017-09-26T04:07:28.801Z,87.02
2017-09-26T04:09:58.094Z,87.67
2017-09-26T04:12:25.726Z,88.09
2017-09-26T04:14:53.310Z,86.93
2017-09-26T04:17:21.304Z,87.47
2017-09-26T04:19:48.880Z,88.64
2017-09-26T04:22:16.477Z,88.72
2017-09-26T04:24:44.791Z,89.23
2017-09-26T04:27:12.799Z,89.69
2017-09-26T04:29:41.706Z,90.71
2017-09-26T04:32:10.744Z,91.32
2017-09-26T04:34:38.315Z,91.03
2017-09-26T04:37:06.598Z,91.04
2017-09-26T04:39:34.188Z,91.03
2017-09-26T04:42:02.582Z,91.28
2017-09-26T04:44:31.551Z,91.60
2017-09-26T04:46:59.295Z,91.34
2017-09-26T04:49:27.081Z,91.25
2017-09-26T04:51:54.665Z,91.71
2017-09-26T04:54:22.682Z,91.66
2017-09-26T04:56:50.640Z,91.60
2017-09-26T04:59:18.527Z,91.26
2017-09-26T05:01:46.083Z,91.03
2017-09-26T05:04:13.656Z,90.61
2017-09-26T05:06:41.859Z,90.86
2017-09-26T05:09:09.419Z,91.19
2017-09-26T05:11:37.446Z,91.65
2017-09-26T05:14:05.058Z,91.65
2017-09-26T05:16:32.629Z,91.73
2017-09-26T05:19:00.220Z,92.26
2017-09-26T05:21:30.775Z,92.15
2017-09-26T05:23:58.360Z,92.12
2017-09-26T05:26:25.929Z,92.50
2017-09-26T05:28:54.984Z,93.02
2017-09-26T05:31:22.555Z,93.02
2017-09-26T05:33:50.153Z,93.26
2017-09-26T05:36:17.761Z,93.37
2017-09-26T05:38:45.702Z,93.22
2017-09-26T05:41:13.318Z,93.38
2017-09-26T05:43:40.953Z,93.74
2017-09-26T05:46:11.530Z,93.52
2017-09-26T05:48:39.590Z,93.47
2017-09-26T05:51:07.596Z,93.37
2017-09-26T05:53:35.159Z,93.14
2017-09-26T05:56:04.004Z,93.31
2017-09-26T05:58:31.582Z,93.37
2017-09-26T06:00:59.191Z,93.36
2017-09-26T06:03:26.780Z,93.77
2017-09-26T06:05:55.264Z,93.58
2017-09-26T06:08:24.269Z,93.63
2017-09-26T06:10:52.283Z,93.49
2017-09-26T06:13:19.862Z,93.68
2017-09-26T06:15:47.851Z,93.52
2017-09-26T06:18:16.132Z,93.43
2017-09-26T06:20:51.046Z,93.33
2017-09-26T06:23:18.641Z,93.35
2017-09-26T06:25:46.740Z,93.90
2017-09-26T06:28:14.893Z,94.36
2017-09-26T06:30:43.274Z,94.58
2017-09-26T06:33:10.886Z,94.43
2017-09-26T06:35:38.609Z,94.58
2017-09-26T06:38:07.592Z,94.70
2017-09-26T06:40:35.181Z,94.66
2017-09-26T06:43:03.196Z,94.70
2017-09-26T06:45:32.211Z,94.70
2017-09-26T06:48:00.943Z,94.92
2017-09-26T06:50:29.039Z,94.81
2017-09-26T06:52:57.007Z,94.99
2017-09-26T06:55:26.229Z,95.01
2017-09-26T06:57:54.245Z,94.89
2017-09-26T07:00:22.161Z,94.96
2017-09-26T07:02:49.766Z,95.07
2017-09-26T07:05:17.731Z,94.92
2017-09-26T07:07:45.634Z,94.83
2017-09-26T07:10:13.626Z,94.72
2017-09-26T07:12:41.217Z,94.70
2017-09-26T07:15:09.209Z,94.73
2017-09-26T07:17:37.139Z,95.04
2017-09-26T07:20:06.259Z,95.09
2017-09-26T07:22:33.867Z,94.98
2017-09-26T07:25:01.441Z,94.96
2017-09-26T07:27:29.053Z,94.78
2017-09-26T07:29:56.650Z,94.70
2017-09-26T07:32:24.291Z,94.64
2017-09-26T07:34:52.693Z,94.56
2017-09-26T07:37:20.583Z,94.55
2017-09-26T07:39:49.701Z,94.46
2017-09-26T07:42:17.935Z,94.34
2017-09-26T07:44:46.019Z,94.16
2017-09-26T07:47:14.669Z,94.07
2017-09-26T07:49:42.287Z,93.86
2017-09-26T07:52:09.850Z,93.67
2017-09-26T07:54:37.602Z,93.57
2017-09-26T07:57:05.607Z,93.47
2017-09-26T07:59:33.439Z,93.11
2017-09-26T08:02:02.345Z,93.16
2017-09-26T08:04:31.173Z,92.90
2017-09-26T08:06:59.676Z,92.54
2017-09-26T08:09:27.991Z,92.45
2017-09-26T08:11:55.624Z,92.27
2017-09-26T08:14:23.201Z,91.73
2017-09-26T08:16:50.823Z,91.61
2017-09-26T08:19:18.413Z,91.85
2017-09-26T08:21:46.349Z,91.69
2017-09-26T08:24:13.937Z,91.94
2017-09-26T08:26:41.517Z,91.93
2017-09-26T08:29:09.108Z,91.97
2017-09-26T08:31:37.394Z,92.12
2017-09-26T08:34:05.042Z,92.17
2017-09-26T08:36:33.591Z,91.93
2017-09-26T08:39:01.193Z,91.64
2017-09-26T08:41:28.801Z,91.38
2017-09-26T08:43:56.417Z,91.46
2017-09-26T08:46:24.264Z,91.03
2017-09-26T08:48:54.177Z,90.81
2017-09-26T08:51:23.009Z,90.68
2017-09-26T08:53:50.639Z,90.55
2017-09-26T08:56:19.901Z,90.37
2017-09-26T08:58:48.231Z,90.53
2017-09-26T09:01:16.446Z,90.46
2017-09-26T09:03:44.099Z,90.67
2017-09-26T09:06:12.046Z,90.44
2017-09-26T09:08:39.643Z,90.17
2017-09-26T09:11:07.608Z,90.42
2017-09-26T09:13:35.213Z,90.42
2017-09-26T09:16:02.788Z,90.31
2017-09-26T09:18:30.825Z,90.27
2017-09-26T09:20:58.409Z,89.98
2017-09-26T09:23:27.691Z,89.52
2017-09-26T09:25:55.322Z,88.97
2017-09-26T09:28:22.947Z,88.76
2017-09-26T09:30:51.846Z,88.73
2017-09-26T09:33:20.693Z,88.46
2017-09-26T09:35:48.346Z,88.07
2017-09-26T09:38:16.000Z,87.58
2017-09-26T09:40:43.776Z,87.42
2017-09-26T09:43:11.376Z,87.58
2017-09-26T09:45:38.966Z,87.59
2017-09-26T09:48:06.870Z,86.93
2017-09-26T09:50:35.052Z,87.33
2017-09-26T09:53:02.632Z,87.07
2017-09-26T09:55:30.524Z,86.91
2017-09-26T09:57:58.133Z,86.83
2017-09-26T10:00:25.723Z,87.06
2017-09-26T10:02:53.354Z,86.81
2017-09-26T10:05:20.932Z,87.03
2017-09-26T10:07:48.533Z,87.28
2017-09-26T10:10:16.493Z,86.79
2017-09-26T10:12:44.459Z,86.85
2017-09-26T10:15:12.374Z,87.40
2017-09-26T10:17:41.209Z,87.04
2017-09-26T10:20:09.197Z,87.30
2017-09-26T10:22:36.761Z,86.93
2017-09-26T10:25:04.385Z,86.07
2017-09-26T10:27:32.387Z,86.53
2017-09-26T10:30:00.010Z,86.50
2017-09-26T10:32:27.616Z,85.79
2017-09-26T10:34:55.251Z,85.39
2017-09-26T10:37:23.759Z,85.11
2017-09-26T10:39:51.518Z,85.23
2017-09-26T10:42:19.176Z,84.51
2017-09-26T10:44:46.790Z,84.09
2017-09-26T10:47:14.391Z,83.66
2017-09-26T10:49:41.982Z,82.76
2017-09-26T10:52:09.650Z,83.31
2017-09-26T10:54:37.231Z,82.65
2017-09-26T10:57:05.180Z,82.59
2017-09-26T10:59:32.852Z,82.35
2017-09-26T11:02:00.842Z,81.27
2017-09-26T11:04:28.488Z,80.84
2017-09-26T11:06:56.073Z,80.51
2017-09-26T11:09:23.718Z,80.75
2017-09-26T11:11:52.764Z,80.97
2017-09-26T11:14:20.365Z,80.68
2017-09-26T11:16:47.980Z,81.22
2017-09-26T11:19:15.888Z,79.40
2017-09-26T11:21:44.106Z,79.84
2017-09-26T11:24:11.721Z,79.31
2017-09-26T11:26:39.329Z,79.23
2017-09-26T11:29:06.930Z,78.21
2017-09-26T11:31:35.349Z,77.86
2017-09-26T11:34:03.150Z,77.60
2017-09-26T11:36:30.947Z,76.96
2017-09-26T11:38:58.557Z,77.54
2017-09-26T11:41:26.148Z,77.09
2017-09-26T11:43:53.851Z,74.41
2017-09-26T11:46:21.397Z,75.91
2017-09-26T11:48:48.994Z,74.53
2017-09-26T11:51:17.863Z,74.05
2017-09-26T11:53:45.488Z,75.98
2017-09-26T11:56:13.198Z,74.61
2017-09-26T11:58:40.816Z,74.64
2017-09-26T12:01:08.407Z,74.50
2017-09-26T12:03:36.030Z,72.90
2017-09-26T12:06:03.686Z,73.81
2017-09-26T12:08:31.289Z,73.79
2017-09-26T12:10:59.088Z,73.83
2017-09-26T12:13:32.238Z,73.61
2017-09-26T12:15:59.850Z,72.13
2017-09-26T12:18:27.426Z,73.04
2017-09-26T12:20:56.266Z,71.57
2017-09-26T12:23:24.278Z,73.06
2017-09-26T12:25:51.865Z,70.91
2017-09-26T12:28:19.474Z,71.24
2017-09-26T12:30:47.057Z,71.81
2017-09-26T12:33:14.653Z,71.97
2017-09-26T12:35:42.229Z,70.70
2017-09-26T12:38:10.770Z,70.78
2017-09-26T12:40:38.361Z,71.15
2017-09-26T12:43:06.351Z,71.07
2017-09-26T12:45:33.943Z,70.52
2017-09-26T12:48:01.483Z,70.70
2017-09-26T12:50:30.376Z,70.22
2017-09-26T12:52:58.511Z,69.61
2017-09-26T12:55:26.126Z,66.71
2017-09-26T12:57:53.765Z,67.90
2017-09-26T13:00:22.115Z,68.02
2017-09-26T13:02:50.502Z,67.60
2017-09-26T13:05:19.540Z,67.62
2017-09-26T13:07:47.124Z,65.70
2017-09-26T13:10:15.022Z,66.72
2017-09-26T13:12:44.003Z,65.70
2017-09-26T13:15:12.206Z,67.82
2017-09-26T13:17:41.213Z,67.60
2017-09-26T13:20:08.843Z,68.48
2017-09-26T13:22:36.493Z,67.53
2017-09-26T13:25:04.072Z,66.22
2017-09-26T13:27:31.714Z,66.62
2017-09-26T13:29:59.325Z,67.47
2017-09-26T13:32:26.917Z,66.27
2017-09-26T13:34:54.516Z,66.78
2017-09-26T13:37:22.189Z,67.11
2017-09-26T13:39:51.233Z,66.15
2017-09-26T13:42:19.998Z,66.03
2017-09-26T13:44:47.597Z,67.22
2017-09-26T13:47:15.214Z,66.70
2017-09-26T13:49:43.146Z,65.83
2017-09-26T13:52:12.010Z,67.18
2017-09-26T13:54:39.690Z,65.78
2017-09-26T13:57:07.291Z,66.36
2017-09-26T13:59:35.507Z,65.41
2017-09-26T14:02:03.085Z,64.65
2017-09-26T14:04:31.114Z,65.30
2017-09-26T14:06:58.697Z,64.31
2017-09-26T14:09:27.783Z,63.69
2017-09-26T14:11:55.374Z,64.56
2017-09-26T14:14:22.972Z,65.21
2017-09-26T14:16:50.586Z,65.46
2017-09-26T14:19:19.054Z,63.25
2017-09-26T14:21:47.037Z,64.27
2017-09-26T14:24:15.923Z,64.38
2017-09-26T14:26:44.247Z,61.88
2017-09-26T14:29:11.816Z,61.51
2017-09-26T14:31:40.719Z,62.03
2017-09-26T14:34:08.315Z,62.60
2017-09-26T14:36:35.903Z,62.70
2017-09-26T14:39:03.505Z,62.01
2017-09-26T14:41:31.106Z,62.99
2017-09-26T14:43:59.243Z,60.50
2017-09-26T14:46:29.332Z,59.35
2017-09-26T14:48:58.344Z,57.80
2017-09-26T14:51:25.915Z,57.65
2017-09-26T14:53:53.943Z,56.44
2017-09-26T14:56:22.079Z,56.96
2017-09-26T14:58:49.664Z,55.89
2017-09-26T15:01:17.283Z,55.05
2017-09-26T15:03:46.361Z,55.53
2017-09-26T15:06:13.940Z,54.98
2017-09-26T15:08:41.545Z,54.29
2017-09-26T15:11:09.134Z,55.14
2017-09-26T15:13:36.726Z,53.78
2017-09-26T15:16:04.312Z,55.21
2017-09-26T15:18:32.000Z,55.48
2017-09-26T15:20:59.858Z,56.80
2017-09-26T15:23:27.760Z,56.17
2017-09-26T15:25:55.361Z,57.50
2017-09-26T15:28:23.639Z,58.12
2017-09-26T15:30:51.779Z,58.78
2017-09-26T15:33:19.351Z,59.25
2017-09-26T15:35:47.389Z,59.70
2017-09-26T15:38:14.945Z,59.87
2017-09-26T15:40:42.905Z,60.41
2017-09-26T15:43:10.506Z,60.88
2017-09-26T15:45:38.850Z,61.28
2017-09-26T15:48:06.545Z,61.46
2017-09-26T15:50:34.138Z,61.93
2017-09-26T15:53:01.731Z,61.70
2017-09-26T15:55:29.334Z,62.42
2017-09-26T15:57:58.129Z,62.32
2017-09-26T16:00:25.672Z,62.48
2017-09-26T16:02:53.246Z,62.79
2017-09-26T16:05:20.956Z,63.39
2017-09-26T16:07:48.545Z,63.01
2017-09-26T16:10:18.902Z,63.30
2017-09-26T16:12:46.514Z,63.50
2017-09-26T16:15:14.104Z,64.23
2017-09-26T16:17:41.698Z,64.57
2017-09-26T16:20:09.258Z,65.00
2017-09-26T16:22:36.906Z,65.27
2017-09-26T16:25:04.509Z,65.62
2017-09-26T16:27:32.612Z,66.00
2017-09-26T16:30:00.223Z,66.38
2017-09-26T16:32:28.126Z,66.74
2017-09-26T16:34:57.242Z,67.61
2017-09-26T16:37:24.834Z,67.79
2017-09-26T16:39:52.480Z,68.36
2017-09-26T16:42:20.811Z,68.73
2017-09-26T16:44:48.488Z,68.90
2017-09-26T16:47:16.243Z,69.30
2017-09-26T16:49:44.305Z,69.75
2017-09-26T16:52:11.881Z,70.12
2017-09-26T16:54:39.476Z,70.42
2017-09-26T16:57:07.107Z,70.86
2017-09-26T16:59:34.686Z,70.90
2017-09-26T17:02:02.307Z,71.07
2017-09-26T17:04:29.885Z,71.57
2017-09-26T17:06:57.453Z,71.95
2017-09-26T17:09:25.838Z,72.23
2017-09-26T17:11:54.449Z,72.84
2017-09-26T17:14:23.443Z,73.08
2017-09-26T17:16:51.034Z,73.03
2017-09-26T17:19:18.628Z,73.07
2017-09-26T17:21:47.562Z,73.00
2017-09-26T17:26:49.072Z,72.61
2017-09-26T17:29:16.671Z,72.19
2017-09-26T17:31:44.260Z,72.05
2017-09-26T17:34:11.859Z,71.91
2017-09-26T17:36:39.441Z,71.86
2017-09-26T17:39:07.244Z,71.88
2017-09-26T17:41:34.813Z,72.19
2017-09-26T17:44:03.692Z,72.84
2017-09-26T17:46:31.427Z,74.15
2017-09-26T17:48:59.017Z,75.11
2017-09-26T17:51:26.625Z,75.66
2017-09-26T17:53:54.187Z,76.22
2017-09-26T17:56:21.767Z,76.35
2017-09-26T17:58:49.344Z,76.04
2017-09-26T18:01:17.395Z,76.17
2017-09-26T18:03:45.305Z,76.51
2017-09-26T18:06:12.906Z,76.49
2017-09-26T18:08:41.444Z,76.52
2017-09-26T18:11:09.059Z,76.16
2017-09-26T18:13:36.679Z,75.78
2017-09-26T18:16:04.281Z,75.65
2017-09-26T18:18:34.528Z,75.49
2017-09-26T18:21:02.154Z,75.24
2017-09-26T18:23:30.998Z,75.03
2017-09-26T18:26:02.888Z,75.07
2017-09-26T18:28:30.499Z,75.27
2017-09-26T18:30:58.583Z,75.81
2017-09-26T18:33:26.630Z,76.37
2017-09-26T18:35:54.573Z,76.60
2017-09-26T18:38:22.187Z,76.84
2017-09-26T18:40:49.816Z,76.86
2017-09-26T18:43:17.457Z,76.87
2017-09-26T18:45:45.956Z,77.87
2017-09-26T18:48:13.652Z,78.29
2017-09-26T18:50:41.253Z,78.01
2017-09-26T18:53:08.840Z,77.87
2017-09-26T18:55:38.004Z,77.73
2017-09-26T18:58:05.957Z,77.62
2017-09-26T19:00:34.022Z,78.10
2017-09-26T19:03:02.571Z,78.52
2017-09-26T19:05:30.216Z,78.45
2017-09-26T19:07:57.820Z,78.07
2017-09-26T19:10:26.740Z,78.21
2017-09-26T19:12:54.346Z,78.37
2017-09-26T19:15:21.937Z,78.50
2017-09-26T19:17:49.551Z,78.54
2017-09-26T19:20:17.154Z,78.67
2017-09-26T19:22:45.333Z,78.68
2017-09-26T19:25:14.747Z,79.04
2017-09-26T19:27:42.356Z,79.36
2017-09-26T19:30:10.848Z,79.49
2017-09-26T19:32:39.528Z,79.70
2017-09-26T19:35:08.086Z,79.79
2017-09-26T19:37:35.880Z,79.75
2017-09-26T19:40:03.484Z,79.79
2017-09-26T19:42:31.459Z,80.07
2017-09-26T19:44:59.091Z,79.98
2017-09-26T19:47:26.699Z,80.08
2017-09-26T19:49:54.446Z,80.31
2017-09-26T19:52:23.096Z,80.66
2017-09-26T19:54:50.727Z,81.78
2017-09-26T19:57:20.395Z,81.56
2017-09-26T19:59:48.130Z,81.72
2017-09-26T20:02:16.913Z,81.59
2017-09-26T20:04:44.526Z,81.96
2017-09-26T20:07:13.619Z,82.12
2017-09-26T20:09:41.430Z,82.19
2017-09-26T20:12:09.062Z,82.33
2017-09-26T20:14:36.667Z,82.24
2017-09-26T20:17:04.310Z,82.50
2017-09-26T20:19:31.901Z,82.84
2017-09-26T20:21:59.486Z,83.02
2017-09-26T20:24:27.123Z,83.16
2017-09-26T20:26:55.198Z,82.87
2017-09-26T20:29:22.816Z,82.84
2017-09-26T20:31:50.420Z,83.02
2017-09-26T20:34:18.037Z,83.21
2017-09-26T20:36:46.113Z,83.41
2017-09-26T20:39:13.769Z,83.47
2017-09-26T20:41:41.387Z,83.53
2017-09-26T20:44:09.001Z,83.73
2017-09-26T20:46:36.752Z,84.11
2017-09-26T20:49:05.799Z,83.94
2017-09-26T20:51:33.419Z,83.88
2017-09-26T20:54:01.364Z,84.08
2017-09-26T20:56:28.979Z,84.12
2017-09-26T20:58:56.593Z,84.12
2017-09-26T21:01:24.598Z,83.92
2017-09-26T21:03:52.326Z,83.76
2017-09-26T21:06:19.945Z,84.04
2017-09-26T21:08:47.538Z,84.27
2017-09-26T21:11:15.114Z,84.24
2017-09-26T21:13:42.708Z,84.45
2017-09-26T21:16:10.308Z,85.20
2017-09-26T21:18:37.923Z,85.33
2017-09-26T21:21:05.557Z,85.40
2017-09-26T21:23:33.168Z,85.31
2017-09-26T21:26:00.791Z,84.90
2017-09-26T21:28:28.404Z,84.77
2017-09-26T21:30:56.354Z,85.01
2017-09-26T21:33:23.956Z,85.35
2017-09-26T21:35:51.567Z,85.51
2017-09-26T21:38:20.591Z,85.26
2017-09-26T21:40:48.660Z,85.84
2017-09-26T21:43:17.679Z,87.06
2017-09-26T21:45:45.283Z,87.48
2017-09-26T21:48:13.229Z,87.52
2017-09-26T21:50:40.940Z,87.29
2017-09-26T21:53:10.628Z,86.93
2017-09-26T21:55:38.390Z,86.66
2017-09-26T21:58:05.974Z,86.58
2017-09-26T22:00:34.223Z,86.90
2017-09-26T22:03:02.175Z,86.90
2017-09-26T22:05:29.771Z,87.07
2017-09-26T22:07:57.390Z,87.17
2017-09-26T22:10:24.983Z,86.96
2017-09-26T22:12:52.618Z,87.03
2017-09-26T22:15:21.454Z,87.01
2017-09-26T22:17:51.501Z,86.85
2017-09-26T22:20:20.564Z,86.59
2017-09-26T22:22:48.253Z,86.42
2017-09-26T22:25:16.467Z,86.16
2017-09-26T22:27:44.396Z,85.91
2017-09-26T22:30:11.975Z,85.94
2017-09-26T22:32:39.583Z,86.18
2017-09-26T22:35:07.156Z,85.92
2017-09-26T22:37:34.746Z,86.06
2017-09-26T22:40:02.579Z,86.29
2017-09-26T22:42:30.989Z,86.81
2017-09-26T22:44:58.563Z,87.08
2017-09-26T22:47:26.852Z,86.94
2017-09-26T22:49:54.447Z,87.04
2017-09-26T22:52:22.033Z,87.10
2017-09-26T22:54:49.650Z,86.78
2017-09-26T22:57:17.240Z,86.85
2017-09-26T22:59:45.274Z,87.01
2017-09-26T23:02:12.863Z,86.87
2017-09-26T23:04:40.437Z,86.79
2017-09-26T23:07:09.488Z,86.63
2017-09-26T23:09:37.631Z,86.57
2017-09-26T23:12:05.553Z,86.69
2017-09-26T23:14:34.895Z,86.60
2017-09-26T23:17:02.506Z,86.82
2017-09-26T23:19:30.089Z,87.11
2017-09-26T23:21:58.021Z,87.19
2017-09-26T23:24:26.029Z,87.48
2017-09-26T23:26:53.606Z,87.33
2017-09-26T23:29:21.238Z,87.37
2017-09-26T23:31:48.856Z,87.95
2017-09-26T23:34:16.833Z,88.04
2017-09-26T23:36:44.409Z,87.76
2017-09-26T23:39:11.997Z,87.33
2017-09-26T23:41:39.562Z,87.17
2017-09-26T23:44:08.321Z,87.41
2017-09-26T23:46:36.269Z,87.47
2017-09-26T23:49:04.236Z,87.39
2017-09-26T23:51:31.836Z,87.29
2017-09-26T23:53:59.515Z,87.22
2017-09-26T23:56:27.573Z,87.00
2017-09-26T23:58:55.546Z,86.92
